sensor_id;sensor_type;location;lat;lon;timestamp;temperature;humidity
12977;DHT22;6553;48.412;9.514;2024-01-06T00:01:38;18.30;62.10
12977;DHT22;6553;48.412;9.514;2024-01-06T00:04:03;18.30;62.00
12977;DHT22;6553;48.412;9.514;2024-01-06T00:06:29;18.20;62.00
12977;DHT22;6553;48.412;9.514;2024-01-06T00:08:55;18.30;62.00
12977;DHT22;6553;48.412;9.514;2024-01-06T00:11:22;18.20;61.90
12977;DHT22;6553;48.412;9.514;2024-01-06T00:13:48;18.30;62.10
12977;DHT22;6553;48.412;9.514;2024-01-06T00:16:18;18.30;62.10
12977;DHT22;6553;48.412;9.514;2024-01-06T00:18:46;18.20;61.90
12977;DHT22;6553;48.412;9.514;2024-01-06T00:21:12;18.30;62.00
12977;DHT22;6553;48.412;9.514;2024-01-06T00:23:40;18.20;62.00
12977;DHT22;6553;48.412;9.514;2024-01-06T00:26:07;18.20;61.90
12977;DHT22;6553;48.412;9.514;2024-01-06T00:28:33;18.30;62.10
12977;DHT22;6553;48.412;9.514;2024-01-06T00:30:59;18.20;62.00
12977;DHT22;6553;48.412;9.514;2024-01-06T00:33:25;18.30;62.00
12977;DHT22;6553;48.412;9.514;2024-01-06T00:35:50;18.20;62.00
12977;DHT22;6553;48.412;9.514;2024-01-06T00:38:16;18.30;62.10
12977;DHT22;6553;48.412;9.514;2024-01-06T00:40:42;18.30;62.10
12977;DHT22;6553;48.412;9.514;2024-01-06T00:43:08;18.20;62.00
12977;DHT22;6553;48.412;9.514;2024-01-06T00:45:33;18.30;62.10
12977;DHT22;6553;48.412;9.514;2024-01-06T00:47:59;18.30;62.10
12977;DHT22;6553;48.412;9.514;2024-01-06T00:50:25;18.30;62.10
12977;DHT22;6553;48.412;9.514;2024-01-06T00:52:51;18.30;62.10
12977;DHT22;6553;48.412;9.514;2024-01-06T00:55:21;18.30;62.10
12977;DHT22;6553;48.412;9.514;2024-01-06T00:57:48;18.30;62.10
12977;DHT22;6553;48.412;9.514;2024-01-06T01:00:14;18.30;62.00
12977;DHT22;6553;48.412;9.514;2024-01-06T01:02:40;18.30;62.10
12977;DHT22;6553;48.412;9.514;2024-01-06T01:05:06;18.30;62.10
12977;DHT22;6553;48.412;9.514;2024-01-06T01:07:35;18.30;62.10
12977;DHT22;6553;48.412;9.514;2024-01-06T01:10:01;18.20;62.10
12977;DHT22;6553;48.412;9.514;2024-01-06T01:12:27;18.30;62.10
12977;DHT22;6553;48.412;9.514;2024-01-06T01:14:53;18.30;62.00
12977;DHT22;6553;48.412;9.514;2024-01-06T01:17:19;18.30;62.10
12977;DHT22;6553;48.412;9.514;2024-01-06T01:19:46;18.30;62.20
12977;DHT22;6553;48.412;9.514;2024-01-06T01:22:12;18.30;62.10
12977;DHT22;6553;48.412;9.514;2024-01-06T01:24:40;18.30;62.20
12977;DHT22;6553;48.412;9.514;2024-01-06T01:27:07;18.30;62.10
12977;DHT22;6553;48.412;9.514;2024-01-06T01:29:33;18.30;62.20
12977;DHT22;6553;48.412;9.514;2024-01-06T01:31:59;18.20;62.00
12977;DHT22;6553;48.412;9.514;2024-01-06T01:34:24;18.20;62.10
12977;DHT22;6553;48.412;9.514;2024-01-06T01:36:50;18.30;62.10
12977;DHT22;6553;48.412;9.514;2024-01-06T01:39:16;18.20;62.10
12977;DHT22;6553;48.412;9.514;2024-01-06T01:41:42;18.20;62.10
12977;DHT22;6553;48.412;9.514;2024-01-06T01:44:08;18.20;62.10
12977;DHT22;6553;48.412;9.514;2024-01-06T01:46:34;18.30;62.20
12977;DHT22;6553;48.412;9.514;2024-01-06T01:49:01;18.20;62.10
12977;DHT22;6553;48.412;9.514;2024-01-06T01:51:30;18.30;62.10
12977;DHT22;6553;48.412;9.514;2024-01-06T01:53:59;18.20;62.00
12977;DHT22;6553;48.412;9.514;2024-01-06T01:56:28;18.20;62.00
12977;DHT22;6553;48.412;9.514;2024-01-06T01:59:01;18.20;62.00
12977;DHT22;6553;48.412;9.514;2024-01-06T02:01:27;18.30;62.10
12977;DHT22;6553;48.412;9.514;2024-01-06T02:03:53;18.20;62.00
12977;DHT22;6553;48.412;9.514;2024-01-06T02:06:20;18.30;62.10
12977;DHT22;6553;48.412;9.514;2024-01-06T02:08:45;18.20;62.00
12977;DHT22;6553;48.412;9.514;2024-01-06T02:11:11;18.20;62.00
12977;DHT22;6553;48.412;9.514;2024-01-06T02:13:37;18.30;62.20
12977;DHT22;6553;48.412;9.514;2024-01-06T02:16:04;18.20;62.00
12977;DHT22;6553;48.412;9.514;2024-01-06T02:18:31;18.20;62.00
12977;DHT22;6553;48.412;9.514;2024-01-06T02:20:59;18.20;62.00
12977;DHT22;6553;48.412;9.514;2024-01-06T02:23:27;18.20;62.00
12977;DHT22;6553;48.412;9.514;2024-01-06T02:25:54;18.20;62.00
12977;DHT22;6553;48.412;9.514;2024-01-06T02:28:20;18.20;62.00
12977;DHT22;6553;48.412;9.514;2024-01-06T02:30:46;18.20;62.00
12977;DHT22;6553;48.412;9.514;2024-01-06T02:33:12;18.20;62.00
12977;DHT22;6553;48.412;9.514;2024-01-06T02:35:37;18.30;62.10
12977;DHT22;6553;48.412;9.514;2024-01-06T02:38:05;18.20;62.00
12977;DHT22;6553;48.412;9.514;2024-01-06T02:40:31;18.20;62.00
12977;DHT22;6553;48.412;9.514;2024-01-06T02:42:58;18.30;62.10
12977;DHT22;6553;48.412;9.514;2024-01-06T02:45:24;18.20;62.00
12977;DHT22;6553;48.412;9.514;2024-01-06T02:47:50;18.20;61.90
12977;DHT22;6553;48.412;9.514;2024-01-06T02:50:16;18.20;61.90
12977;DHT22;6553;48.412;9.514;2024-01-06T02:52:43;18.20;61.90
12977;DHT22;6553;48.412;9.514;2024-01-06T02:55:10;18.30;62.00
12977;DHT22;6553;48.412;9.514;2024-01-06T02:57:37;18.30;62.10
12977;DHT22;6553;48.412;9.514;2024-01-06T03:00:04;18.20;61.90
12977;DHT22;6553;48.412;9.514;2024-01-06T03:02:30;18.20;62.00
12977;DHT22;6553;48.412;9.514;2024-01-06T03:04:56;18.20;62.00
12977;DHT22;6553;48.412;9.514;2024-01-06T03:07:21;18.20;62.00
12977;DHT22;6553;48.412;9.514;2024-01-06T03:09:47;18.30;62.00
12977;DHT22;6553;48.412;9.514;2024-01-06T03:12:13;18.20;62.00
12977;DHT22;6553;48.412;9.514;2024-01-06T03:14:39;18.20;62.00
12977;DHT22;6553;48.412;9.514;2024-01-06T03:17:05;18.20;62.00
12977;DHT22;6553;48.412;9.514;2024-01-06T03:19:31;18.20;62.00
12977;DHT22;6553;48.412;9.514;2024-01-06T03:21:57;18.20;62.00
12977;DHT22;6553;48.412;9.514;2024-01-06T03:24:25;18.20;62.00
12977;DHT22;6553;48.412;9.514;2024-01-06T03:26:52;18.20;62.00
12977;DHT22;6553;48.412;9.514;2024-01-06T03:29:18;18.20;61.90
12977;DHT22;6553;48.412;9.514;2024-01-06T03:31:45;18.20;61.90
12977;DHT22;6553;48.412;9.514;2024-01-06T03:34:11;18.20;62.00
12977;DHT22;6553;48.412;9.514;2024-01-06T03:36:40;18.20;62.00
12977;DHT22;6553;48.412;9.514;2024-01-06T03:39:07;18.20;61.90
12977;DHT22;6553;48.412;9.514;2024-01-06T03:41:33;18.20;62.00
12977;DHT22;6553;48.412;9.514;2024-01-06T03:43:59;18.20;61.90
12977;DHT22;6553;48.412;9.514;2024-01-06T03:46:25;18.20;61.90
12977;DHT22;6553;48.412;9.514;2024-01-06T03:48:50;18.20;62.00
12977;DHT22;6553;48.412;9.514;2024-01-06T03:51:16;18.20;61.90
12977;DHT22;6553;48.412;9.514;2024-01-06T03:53:42;18.20;62.00
12977;DHT22;6553;48.412;9.514;2024-01-06T03:56:08;18.20;61.90
12977;DHT22;6553;48.412;9.514;2024-01-06T03:58:34;18.20;61.90
12977;DHT22;6553;48.412;9.514;2024-01-06T04:01:00;18.20;61.90
12977;DHT22;6553;48.412;9.514;2024-01-06T04:03:26;18.20;61.90
12977;DHT22;6553;48.412;9.514;2024-01-06T04:05:52;18.20;61.90
12977;DHT22;6553;48.412;9.514;2024-01-06T04:08:18;18.20;61.90
12977;DHT22;6553;48.412;9.514;2024-01-06T04:10:44;18.20;61.90
12977;DHT22;6553;48.412;9.514;2024-01-06T04:13:15;18.20;62.00
12977;DHT22;6553;48.412;9.514;2024-01-06T04:15:42;18.20;61.80
12977;DHT22;6553;48.412;9.514;2024-01-06T04:18:07;18.20;61.90
12977;DHT22;6553;48.412;9.514;2024-01-06T04:20:35;18.20;61.90
12977;DHT22;6553;48.412;9.514;2024-01-06T04:23:00;18.20;61.90
12977;DHT22;6553;48.412;9.514;2024-01-06T04:25:26;18.20;61.80
12977;DHT22;6553;48.412;9.514;2024-01-06T04:27:52;18.20;61.80
12977;DHT22;6553;48.412;9.514;2024-01-06T04:30:17;18.20;61.80
12977;DHT22;6553;48.412;9.514;2024-01-06T04:32:44;18.20;61.80
12977;DHT22;6553;48.412;9.514;2024-01-06T04:35:10;18.20;61.80
12977;DHT22;6553;48.412;9.514;2024-01-06T04:37:36;18.20;61.80
12977;DHT22;6553;48.412;9.514;2024-01-06T04:40:02;18.20;61.80
12977;DHT22;6553;48.412;9.514;2024-01-06T04:42:29;18.20;61.80
12977;DHT22;6553;48.412;9.514;2024-01-06T04:44:55;18.20;61.70
12977;DHT22;6553;48.412;9.514;2024-01-06T04:47:20;18.20;61.80
12977;DHT22;6553;48.412;9.514;2024-01-06T04:49:46;18.20;61.80
12977;DHT22;6553;48.412;9.514;2024-01-06T04:52:12;18.20;61.80
12977;DHT22;6553;48.412;9.514;2024-01-06T04:54:38;18.20;61.80
12977;DHT22;6553;48.412;9.514;2024-01-06T04:57:04;18.20;61.80
12977;DHT22;6553;48.412;9.514;2024-01-06T04:59:30;18.20;61.80
12977;DHT22;6553;48.412;9.514;2024-01-06T05:01:57;18.20;61.70
12977;DHT22;6553;48.412;9.514;2024-01-06T05:04:24;18.20;61.80
12977;DHT22;6553;48.412;9.514;2024-01-06T05:06:51;18.20;61.80
12977;DHT22;6553;48.412;9.514;2024-01-06T05:09:17;18.20;61.80
12977;DHT22;6553;48.412;9.514;2024-01-06T05:11:44;18.20;61.70
12977;DHT22;6553;48.412;9.514;2024-01-06T05:14:10;18.20;61.70
12977;DHT22;6553;48.412;9.514;2024-01-06T05:16:36;18.10;61.60
12977;DHT22;6553;48.412;9.514;2024-01-06T05:19:01;18.10;61.60
12977;DHT22;6553;48.412;9.514;2024-01-06T05:21:28;18.10;61.60
12977;DHT22;6553;48.412;9.514;2024-01-06T05:23:54;18.20;61.80
12977;DHT22;6553;48.412;9.514;2024-01-06T05:26:20;18.20;61.70
12977;DHT22;6553;48.412;9.514;2024-01-06T05:28:46;18.20;61.70
12977;DHT22;6553;48.412;9.514;2024-01-06T05:31:12;18.20;61.70
12977;DHT22;6553;48.412;9.514;2024-01-06T05:33:37;18.20;61.60
12977;DHT22;6553;48.412;9.514;2024-01-06T05:36:03;18.20;61.60
12977;DHT22;6553;48.412;9.514;2024-01-06T05:38:29;18.20;61.60
12977;DHT22;6553;48.412;9.514;2024-01-06T05:40:55;18.20;61.60
12977;DHT22;6553;48.412;9.514;2024-01-06T05:43:21;18.20;61.60
12977;DHT22;6553;48.412;9.514;2024-01-06T05:45:47;18.20;61.70
12977;DHT22;6553;48.412;9.514;2024-01-06T05:48:13;18.20;61.70
12977;DHT22;6553;48.412;9.514;2024-01-06T05:50:39;18.20;61.60
12977;DHT22;6553;48.412;9.514;2024-01-06T05:53:05;18.20;61.70
12977;DHT22;6553;48.412;9.514;2024-01-06T05:55:31;18.20;61.70
12977;DHT22;6553;48.412;9.514;2024-01-06T05:57:57;18.20;61.60
12977;DHT22;6553;48.412;9.514;2024-01-06T06:00:23;18.20;61.70
12977;DHT22;6553;48.412;9.514;2024-01-06T06:02:49;18.20;61.60
12977;DHT22;6553;48.412;9.514;2024-01-06T06:05:15;18.20;61.70
12977;DHT22;6553;48.412;9.514;2024-01-06T06:07:40;18.10;61.50
12977;DHT22;6553;48.412;9.514;2024-01-06T06:10:08;18.20;61.60
12977;DHT22;6553;48.412;9.514;2024-01-06T06:12:35;18.20;61.60
12977;DHT22;6553;48.412;9.514;2024-01-06T06:15:01;18.20;61.70
12977;DHT22;6553;48.412;9.514;2024-01-06T06:17:29;18.20;61.60
12977;DHT22;6553;48.412;9.514;2024-01-06T06:19:57;18.20;61.60
12977;DHT22;6553;48.412;9.514;2024-01-06T06:22:23;18.20;61.60
12977;DHT22;6553;48.412;9.514;2024-01-06T06:24:52;18.20;61.60
12977;DHT22;6553;48.412;9.514;2024-01-06T06:27:18;18.20;61.60
12977;DHT22;6553;48.412;9.514;2024-01-06T06:29:43;18.20;61.50
12977;DHT22;6553;48.412;9.514;2024-01-06T06:32:09;18.20;61.60
12977;DHT22;6553;48.412;9.514;2024-01-06T06:34:35;18.20;61.50
12977;DHT22;6553;48.412;9.514;2024-01-06T06:37:00;18.10;61.40
12977;DHT22;6553;48.412;9.514;2024-01-06T06:39:26;18.20;61.50
12977;DHT22;6553;48.412;9.514;2024-01-06T06:41:52;18.10;61.40
12977;DHT22;6553;48.412;9.514;2024-01-06T06:44:18;18.20;61.50
12977;DHT22;6553;48.412;9.514;2024-01-06T06:46:44;18.20;61.50
12977;DHT22;6553;48.412;9.514;2024-01-06T06:49:09;18.20;61.50
12977;DHT22;6553;48.412;9.514;2024-01-06T06:51:35;18.20;61.50
12977;DHT22;6553;48.412;9.514;2024-01-06T06:54:01;18.10;61.40
12977;DHT22;6553;48.412;9.514;2024-01-06T06:56:27;18.20;61.60
12977;DHT22;6553;48.412;9.514;2024-01-06T06:58:52;18.20;61.50
12977;DHT22;6553;48.412;9.514;2024-01-06T07:01:18;18.10;61.50
12977;DHT22;6553;48.412;9.514;2024-01-06T07:03:44;18.10;61.40
12977;DHT22;6553;48.412;9.514;2024-01-06T07:06:13;18.20;61.60
12977;DHT22;6553;48.412;9.514;2024-01-06T07:08:39;18.20;61.50
12977;DHT22;6553;48.412;9.514;2024-01-06T07:11:07;18.10;61.40
12977;DHT22;6553;48.412;9.514;2024-01-06T07:13:34;18.10;61.40
12977;DHT22;6553;48.412;9.514;2024-01-06T07:15:59;18.20;61.40
12977;DHT22;6553;48.412;9.514;2024-01-06T07:18:25;18.20;61.40
12977;DHT22;6553;48.412;9.514;2024-01-06T07:20:51;18.20;61.50
12977;DHT22;6553;48.412;9.514;2024-01-06T07:23:17;18.20;61.40
12977;DHT22;6553;48.412;9.514;2024-01-06T07:25:42;18.20;61.40
12977;DHT22;6553;48.412;9.514;2024-01-06T07:28:08;18.10;61.30
12977;DHT22;6553;48.412;9.514;2024-01-06T07:30:34;18.10;61.20
12977;DHT22;6553;48.412;9.514;2024-01-06T07:33:00;18.20;61.40
12977;DHT22;6553;48.412;9.514;2024-01-06T07:35:26;18.10;61.20
12977;DHT22;6553;48.412;9.514;2024-01-06T07:37:51;18.20;61.30
12977;DHT22;6553;48.412;9.514;2024-01-06T07:40:18;18.10;61.30
12977;DHT22;6553;48.412;9.514;2024-01-06T07:42:44;18.20;61.30
12977;DHT22;6553;48.412;9.514;2024-01-06T07:45:10;18.20;61.30
12977;DHT22;6553;48.412;9.514;2024-01-06T07:47:36;18.10;61.30
12977;DHT22;6553;48.412;9.514;2024-01-06T07:50:02;18.10;61.30
12977;DHT22;6553;48.412;9.514;2024-01-06T07:52:30;18.10;61.30
12977;DHT22;6553;48.412;9.514;2024-01-06T07:54:56;18.20;61.30
12977;DHT22;6553;48.412;9.514;2024-01-06T07:57:22;18.10;61.30
12977;DHT22;6553;48.412;9.514;2024-01-06T07:59:47;18.10;61.30
12977;DHT22;6553;48.412;9.514;2024-01-06T08:02:13;18.20;61.40
12977;DHT22;6553;48.412;9.514;2024-01-06T08:04:39;18.10;61.30
12977;DHT22;6553;48.412;9.514;2024-01-06T08:07:05;18.20;61.40
12977;DHT22;6553;48.412;9.514;2024-01-06T08:09:30;18.20;61.40
12977;DHT22;6553;48.412;9.514;2024-01-06T08:11:56;18.10;61.30
12977;DHT22;6553;48.412;9.514;2024-01-06T08:14:22;18.20;61.30
12977;DHT22;6553;48.412;9.514;2024-01-06T08:16:47;18.20;61.30
12977;DHT22;6553;48.412;9.514;2024-01-06T08:19:13;18.20;61.40
12977;DHT22;6553;48.412;9.514;2024-01-06T08:21:39;18.10;61.20
12977;DHT22;6553;48.412;9.514;2024-01-06T08:24:05;18.20;61.30
12977;DHT22;6553;48.412;9.514;2024-01-06T08:26:31;18.20;61.30
12977;DHT22;6553;48.412;9.514;2024-01-06T08:28:56;18.20;61.20
12977;DHT22;6553;48.412;9.514;2024-01-06T08:31:22;18.20;61.30
12977;DHT22;6553;48.412;9.514;2024-01-06T08:33:48;18.20;61.30
12977;DHT22;6553;48.412;9.514;2024-01-06T08:36:14;18.20;61.30
12977;DHT22;6553;48.412;9.514;2024-01-06T08:38:40;18.10;61.30
12977;DHT22;6553;48.412;9.514;2024-01-06T08:41:05;18.20;61.30
12977;DHT22;6553;48.412;9.514;2024-01-06T08:43:31;18.10;61.20
12977;DHT22;6553;48.412;9.514;2024-01-06T08:45:57;18.10;61.20
12977;DHT22;6553;48.412;9.514;2024-01-06T08:48:22;18.10;61.30
12977;DHT22;6553;48.412;9.514;2024-01-06T08:50:48;18.10;61.20
12977;DHT22;6553;48.412;9.514;2024-01-06T08:53:14;18.10;61.20
12977;DHT22;6553;48.412;9.514;2024-01-06T08:55:41;18.20;61.30
12977;DHT22;6553;48.412;9.514;2024-01-06T08:58:06;18.20;61.40
12977;DHT22;6553;48.412;9.514;2024-01-06T09:00:32;18.10;61.20
12977;DHT22;6553;48.412;9.514;2024-01-06T09:02:58;18.10;61.20
12977;DHT22;6553;48.412;9.514;2024-01-06T09:05:23;18.20;61.30
12977;DHT22;6553;48.412;9.514;2024-01-06T09:07:49;18.20;61.30
12977;DHT22;6553;48.412;9.514;2024-01-06T09:10:18;18.20;61.20
12977;DHT22;6553;48.412;9.514;2024-01-06T09:12:44;18.20;61.20
12977;DHT22;6553;48.412;9.514;2024-01-06T09:15:10;18.20;61.90
12977;DHT22;6553;48.412;9.514;2024-01-06T09:17:36;18.20;61.10
12977;DHT22;6553;48.412;9.514;2024-01-06T09:20:02;18.20;61.10
12977;DHT22;6553;48.412;9.514;2024-01-06T09:22:28;18.30;61.30
12977;DHT22;6553;48.412;9.514;2024-01-06T09:24:54;18.20;61.10
12977;DHT22;6553;48.412;9.514;2024-01-06T09:27:20;18.20;61.10
12977;DHT22;6553;48.412;9.514;2024-01-06T09:29:46;18.20;61.10
12977;DHT22;6553;48.412;9.514;2024-01-06T09:32:13;18.30;61.30
12977;DHT22;6553;48.412;9.514;2024-01-06T09:34:39;18.20;61.20
12977;DHT22;6553;48.412;9.514;2024-01-06T09:37:04;18.20;61.20
12977;DHT22;6553;48.412;9.514;2024-01-06T09:39:30;18.20;62.00
12977;DHT22;6553;48.412;9.514;2024-01-06T09:41:58;18.30;61.30
12977;DHT22;6553;48.412;9.514;2024-01-06T09:44:24;18.20;61.20
12977;DHT22;6553;48.412;9.514;2024-01-06T09:46:50;18.20;61.20
12977;DHT22;6553;48.412;9.514;2024-01-06T09:49:23;18.20;61.20
12977;DHT22;6553;48.412;9.514;2024-01-06T09:51:53;18.20;61.20
12977;DHT22;6553;48.412;9.514;2024-01-06T09:54:25;18.20;61.30
12977;DHT22;6553;48.412;9.514;2024-01-06T09:56:55;18.20;61.20
12977;DHT22;6553;48.412;9.514;2024-01-06T09:59:22;18.20;61.30
12977;DHT22;6553;48.412;9.514;2024-01-06T10:01:48;18.30;61.40
12977;DHT22;6553;48.412;9.514;2024-01-06T10:04:15;18.20;61.30
12977;DHT22;6553;48.412;9.514;2024-01-06T10:06:42;18.20;61.30
12977;DHT22;6553;48.412;9.514;2024-01-06T10:09:07;18.30;61.30
12977;DHT22;6553;48.412;9.514;2024-01-06T10:11:35;18.30;61.30
12977;DHT22;6553;48.412;9.514;2024-01-06T10:14:03;18.30;61.30
12977;DHT22;6553;48.412;9.514;2024-01-06T10:16:29;18.30;61.30
12977;DHT22;6553;48.412;9.514;2024-01-06T10:18:54;18.20;62.10
12977;DHT22;6553;48.412;9.514;2024-01-06T10:21:25;18.30;61.40
12977;DHT22;6553;48.412;9.514;2024-01-06T10:23:51;18.20;61.30
12977;DHT22;6553;48.412;9.514;2024-01-06T10:26:19;18.20;62.10
12977;DHT22;6553;48.412;9.514;2024-01-06T10:28:45;18.30;61.30
12977;DHT22;6553;48.412;9.514;2024-01-06T10:31:13;18.20;61.20
12977;DHT22;6553;48.412;9.514;2024-01-06T10:33:39;18.20;61.30
12977;DHT22;6553;48.412;9.514;2024-01-06T10:36:05;18.30;61.40
12977;DHT22;6553;48.412;9.514;2024-01-06T10:38:33;18.20;61.30
12977;DHT22;6553;48.412;9.514;2024-01-06T10:41:01;18.20;61.30
12977;DHT22;6553;48.412;9.514;2024-01-06T10:43:33;18.20;61.30
12977;DHT22;6553;48.412;9.514;2024-01-06T10:46:06;18.20;61.30
12977;DHT22;6553;48.412;9.514;2024-01-06T10:48:36;18.30;61.40
12977;DHT22;6553;48.412;9.514;2024-01-06T10:51:10;18.30;61.40
12977;DHT22;6553;48.412;9.514;2024-01-06T10:53:40;18.30;61.40
12977;DHT22;6553;48.412;9.514;2024-01-06T10:56:07;18.30;61.40
12977;DHT22;6553;48.412;9.514;2024-01-06T10:58:35;18.30;61.40
12977;DHT22;6553;48.412;9.514;2024-01-06T11:01:08;18.20;61.30
12977;DHT22;6553;48.412;9.514;2024-01-06T11:03:36;18.30;61.40
12977;DHT22;6553;48.412;9.514;2024-01-06T11:06:06;18.30;61.40
12977;DHT22;6553;48.412;9.514;2024-01-06T11:08:43;18.30;61.40
12977;DHT22;6553;48.412;9.514;2024-01-06T11:11:21;18.30;61.30
12977;DHT22;6553;48.412;9.514;2024-01-06T11:13:49;18.30;61.40
12977;DHT22;6553;48.412;9.514;2024-01-06T11:16:34;18.30;61.40
12977;DHT22;6553;48.412;9.514;2024-01-06T11:19:01;18.30;61.40
12977;DHT22;6553;48.412;9.514;2024-01-06T11:21:27;18.30;61.40
12977;DHT22;6553;48.412;9.514;2024-01-06T11:24:15;18.30;61.30
12977;DHT22;6553;48.412;9.514;2024-01-06T11:26:51;18.30;61.40
12977;DHT22;6553;48.412;9.514;2024-01-06T11:29:19;18.30;61.50
12977;DHT22;6553;48.412;9.514;2024-01-06T11:35:09;18.30;61.40
12977;DHT22;6553;48.412;9.514;2024-01-06T11:37:37;18.30;61.40
12977;DHT22;6553;48.412;9.514;2024-01-06T11:40:23;18.30;61.40
12977;DHT22;6553;48.412;9.514;2024-01-06T11:43:07;18.30;61.40
12977;DHT22;6553;48.412;9.514;2024-01-06T11:45:38;18.30;61.40
12977;DHT22;6553;48.412;9.514;2024-01-06T11:48:08;18.30;61.40
12977;DHT22;6553;48.412;9.514;2024-01-06T11:50:37;18.30;61.40
12977;DHT22;6553;48.412;9.514;2024-01-06T11:53:05;18.30;61.50
12977;DHT22;6553;48.412;9.514;2024-01-06T11:55:32;18.30;61.40
12977;DHT22;6553;48.412;9.514;2024-01-06T11:57:59;18.30;61.40
12977;DHT22;6553;48.412;9.514;2024-01-06T12:00:28;18.30;61.40
12977;DHT22;6553;48.412;9.514;2024-01-06T12:02:58;18.30;61.50
12977;DHT22;6553;48.412;9.514;2024-01-06T12:05:27;18.30;61.50
12977;DHT22;6553;48.412;9.514;2024-01-06T12:08:03;18.30;61.50
12977;DHT22;6553;48.412;9.514;2024-01-06T12:10:32;18.30;62.30
12977;DHT22;6553;48.412;9.514;2024-01-06T12:13:03;18.30;61.50
12977;DHT22;6553;48.412;9.514;2024-01-06T12:15:32;18.30;61.40
12977;DHT22;6553;48.412;9.514;2024-01-06T12:17:58;18.30;61.50
12977;DHT22;6553;48.412;9.514;2024-01-06T12:20:25;18.30;61.50
12977;DHT22;6553;48.412;9.514;2024-01-06T12:22:54;18.30;61.50
12977;DHT22;6553;48.412;9.514;2024-01-06T12:25:22;18.30;61.50
12977;DHT22;6553;48.412;9.514;2024-01-06T12:27:49;18.30;61.60
12977;DHT22;6553;48.412;9.514;2024-01-06T12:30:19;18.30;61.60
12977;DHT22;6553;48.412;9.514;2024-01-06T12:32:47;18.30;61.50
12977;DHT22;6553;48.412;9.514;2024-01-06T12:35:15;18.30;61.50
12977;DHT22;6553;48.412;9.514;2024-01-06T12:37:42;18.30;61.50
12977;DHT22;6553;48.412;9.514;2024-01-06T12:40:09;18.30;61.50
12977;DHT22;6553;48.412;9.514;2024-01-06T12:42:35;18.30;61.60
12977;DHT22;6553;48.412;9.514;2024-01-06T12:45:02;18.30;61.50
12977;DHT22;6553;48.412;9.514;2024-01-06T12:47:28;18.30;61.50
12977;DHT22;6553;48.412;9.514;2024-01-06T12:49:54;18.30;61.50
12977;DHT22;6553;48.412;9.514;2024-01-06T12:52:19;18.30;61.60
12977;DHT22;6553;48.412;9.514;2024-01-06T12:54:45;18.30;61.50
12977;DHT22;6553;48.412;9.514;2024-01-06T12:57:11;18.30;61.60
12977;DHT22;6553;48.412;9.514;2024-01-06T12:59:37;18.30;61.60
12977;DHT22;6553;48.412;9.514;2024-01-06T13:02:03;18.30;61.60
12977;DHT22;6553;48.412;9.514;2024-01-06T13:04:28;18.30;61.60
12977;DHT22;6553;48.412;9.514;2024-01-06T13:06:54;18.30;61.60
12977;DHT22;6553;48.412;9.514;2024-01-06T13:09:20;18.30;61.50
12977;DHT22;6553;48.412;9.514;2024-01-06T13:11:48;18.30;61.60
12977;DHT22;6553;48.412;9.514;2024-01-06T13:14:16;18.30;61.60
12977;DHT22;6553;48.412;9.514;2024-01-06T13:16:43;18.30;61.70
12977;DHT22;6553;48.412;9.514;2024-01-06T13:19:09;18.30;61.70
12977;DHT22;6553;48.412;9.514;2024-01-06T13:21:35;18.30;61.70
12977;DHT22;6553;48.412;9.514;2024-01-06T13:24:01;18.30;61.60
12977;DHT22;6553;48.412;9.514;2024-01-06T13:26:29;18.30;61.70
12977;DHT22;6553;48.412;9.514;2024-01-06T13:28:56;18.20;61.50
12977;DHT22;6553;48.412;9.514;2024-01-06T13:31:22;18.30;61.60
12977;DHT22;6553;48.412;9.514;2024-01-06T13:33:49;18.30;61.60
12977;DHT22;6553;48.412;9.514;2024-01-06T13:36:17;18.30;61.70
12977;DHT22;6553;48.412;9.514;2024-01-06T13:38:45;18.30;61.70
12977;DHT22;6553;48.412;9.514;2024-01-06T13:41:11;18.30;61.70
12977;DHT22;6553;48.412;9.514;2024-01-06T13:43:37;18.20;61.60
12977;DHT22;6553;48.412;9.514;2024-01-06T13:46:03;18.30;61.70
12977;DHT22;6553;48.412;9.514;2024-01-06T13:48:29;18.20;61.60
12977;DHT22;6553;48.412;9.514;2024-01-06T13:50:55;18.30;61.70
12977;DHT22;6553;48.412;9.514;2024-01-06T13:53:21;18.30;61.60
12977;DHT22;6553;48.412;9.514;2024-01-06T13:55:47;18.30;61.70
12977;DHT22;6553;48.412;9.514;2024-01-06T13:58:13;18.20;61.60
12977;DHT22;6553;48.412;9.514;2024-01-06T14:00:39;18.30;61.70
12977;DHT22;6553;48.412;9.514;2024-01-06T14:03:05;18.30;61.70
12977;DHT22;6553;48.412;9.514;2024-01-06T14:05:33;18.30;61.70
12977;DHT22;6553;48.412;9.514;2024-01-06T14:07:59;18.20;61.60
12977;DHT22;6553;48.412;9.514;2024-01-06T14:10:25;18.30;61.70
12977;DHT22;6553;48.412;9.514;2024-01-06T14:12:53;18.20;61.60
12977;DHT22;6553;48.412;9.514;2024-01-06T14:15:19;18.30;61.70
12977;DHT22;6553;48.412;9.514;2024-01-06T14:17:45;18.20;61.60
12977;DHT22;6553;48.412;9.514;2024-01-06T14:20:18;18.30;61.70
12977;DHT22;6553;48.412;9.514;2024-01-06T14:22:47;18.20;61.60
12977;DHT22;6553;48.412;9.514;2024-01-06T14:25:15;18.20;61.60
12977;DHT22;6553;48.412;9.514;2024-01-06T14:27:45;18.20;61.60
12977;DHT22;6553;48.412;9.514;2024-01-06T14:30:11;18.20;61.60
12977;DHT22;6553;48.412;9.514;2024-01-06T14:32:37;18.30;61.70
12977;DHT22;6553;48.412;9.514;2024-01-06T14:35:05;18.30;61.60
12977;DHT22;6553;48.412;9.514;2024-01-06T14:37:37;18.20;61.70
12977;DHT22;6553;48.412;9.514;2024-01-06T14:40:04;18.20;61.60
12977;DHT22;6553;48.412;9.514;2024-01-06T14:42:32;18.20;61.60
12977;DHT22;6553;48.412;9.514;2024-01-06T14:44:59;18.20;61.60
12977;DHT22;6553;48.412;9.514;2024-01-06T14:47:25;18.30;61.80
12977;DHT22;6553;48.412;9.514;2024-01-06T14:49:50;18.20;61.60
12977;DHT22;6553;48.412;9.514;2024-01-06T14:52:16;18.20;61.60
12977;DHT22;6553;48.412;9.514;2024-01-06T14:54:43;18.30;61.70
12977;DHT22;6553;48.412;9.514;2024-01-06T14:57:09;18.20;61.70
12977;DHT22;6553;48.412;9.514;2024-01-06T14:59:35;18.20;61.70
12977;DHT22;6553;48.412;9.514;2024-01-06T15:02:03;18.30;61.70
12977;DHT22;6553;48.412;9.514;2024-01-06T15:04:29;18.30;61.70
12977;DHT22;6553;48.412;9.514;2024-01-06T15:06:55;18.20;61.60
12977;DHT22;6553;48.412;9.514;2024-01-06T15:09:21;18.30;61.70
12977;DHT22;6553;48.412;9.514;2024-01-06T15:11:47;18.20;61.70
12977;DHT22;6553;48.412;9.514;2024-01-06T15:14:13;18.20;61.70
12977;DHT22;6553;48.412;9.514;2024-01-06T15:16:39;18.30;61.80
12977;DHT22;6553;48.412;9.514;2024-01-06T15:19:05;18.20;61.60
12977;DHT22;6553;48.412;9.514;2024-01-06T15:21:33;18.20;61.70
12977;DHT22;6553;48.412;9.514;2024-01-06T15:24:01;18.30;61.90
12977;DHT22;6553;48.412;9.514;2024-01-06T15:26:26;18.30;61.80
12977;DHT22;6553;48.412;9.514;2024-01-06T15:28:52;18.30;61.90
12977;DHT22;6553;48.412;9.514;2024-01-06T15:31:18;18.30;61.80
12977;DHT22;6553;48.412;9.514;2024-01-06T15:33:44;18.30;61.80
12977;DHT22;6553;48.412;9.514;2024-01-06T15:36:13;18.20;61.80
12977;DHT22;6553;48.412;9.514;2024-01-06T15:38:39;18.30;61.90
12977;DHT22;6553;48.412;9.514;2024-01-06T15:41:06;18.30;61.90
12977;DHT22;6553;48.412;9.514;2024-01-06T15:43:32;18.30;61.80
12977;DHT22;6553;48.412;9.514;2024-01-06T15:45:58;18.30;61.80